sensor_id;sensor_type;location;lat;lon;timestamp;P1;P2;P0
55276;PMS5003;41136;51.478;-2.610;2023-09-19T00:05:08;5;4;
55276;PMS5003;41136;51.478;-2.610;2023-09-19T00:09:47;3;3;
55276;PMS5003;41136;51.478;-2.610;2023-09-19T00:12:12;5;2;
55276;PMS5003;41136;51.478;-2.610;2023-09-19T00:14:37;3;2;
55276;PMS5003;41136;51.478;-2.610;2023-09-19T00:17:03;4;3;
55276;PMS5003;41136;51.478;-2.610;2023-09-19T00:25:06;2;2;
55276;PMS5003;41136;51.478;-2.610;2023-09-19T00:27:32;5;5;
55276;PMS5003;41136;51.478;-2.610;2023-09-19T00:29:57;4;3;
55276;PMS5003;41136;51.478;-2.610;2023-09-19T00:32:22;4;2;
55276;PMS5003;41136;51.478;-2.610;2023-09-19T00:34:47;5;2;
55276;PMS5003;41136;51.478;-2.610;2023-09-19T00:37:13;3;1;
55276;PMS5003;41136;51.478;-2.610;2023-09-19T00:39:38;3;2;
55276;PMS5003;41136;51.478;-2.610;2023-09-19T00:42:04;2;2;
55276;PMS5003;41136;51.478;-2.610;2023-09-19T00:44:30;2;1;
55276;PMS5003;41136;51.478;-2.610;2023-09-19T00:46:55;6;4;
55276;PMS5003;41136;51.478;-2.610;2023-09-19T00:49:21;2;2;
55276;PMS5003;41136;51.478;-2.610;2023-09-19T00:51:46;4;2;
55276;PMS5003;41136;51.478;-2.610;2023-09-19T00:54:11;3;3;
55276;PMS5003;41136;51.478;-2.610;2023-09-19T00:56:37;5;4;
55276;PMS5003;41136;51.478;-2.610;2023-09-19T00:59:02;3;2;
55276;PMS5003;41136;51.478;-2.610;2023-09-19T01:01:27;3;2;
55276;PMS5003;41136;51.478;-2.610;2023-09-19T01:06:56;3;1;
55276;PMS5003;41136;51.478;-2.610;2023-09-19T01:09:21;4;3;
55276;PMS5003;41136;51.478;-2.610;2023-09-19T01:16:11;1;1;
55276;PMS5003;41136;51.478;-2.610;2023-09-19T01:18:35;3;3;
55276;PMS5003;41136;51.478;-2.610;2023-09-19T01:24:34;2;1;
55276;PMS5003;41136;51.478;-2.610;2023-09-19T01:27:00;2;1;
55276;PMS5003;41136;51.478;-2.610;2023-09-19T01:29:25;2;1;
55276;PMS5003;41136;51.478;-2.610;2023-09-19T01:31:46;4;2;
55276;PMS5003;41136;51.478;-2.610;2023-09-19T01:34:11;2;2;
55276;PMS5003;41136;51.478;-2.610;2023-09-19T01:36:37;4;3;
55276;PMS5003;41136;51.478;-2.610;2023-09-19T01:39:02;4;3;
55276;PMS5003;41136;51.478;-2.610;2023-09-19T01:41:32;4;3;
55276;PMS5003;41136;51.478;-2.610;2023-09-19T01:43:52;2;2;
55276;PMS5003;41136;51.478;-2.610;2023-09-19T01:46:18;2;1;
55276;PMS5003;41136;51.478;-2.610;2023-09-19T01:48:46;3;3;
55276;PMS5003;41136;51.478;-2.610;2023-09-19T01:51:09;4;1;
55276;PMS5003;41136;51.478;-2.610;2023-09-19T01:53:35;4;3;
55276;PMS5003;41136;51.478;-2.610;2023-09-19T01:55:59;4;2;
55276;PMS5003;41136;51.478;-2.610;2023-09-19T01:58:26;2;1;
55276;PMS5003;41136;51.478;-2.610;2023-09-19T02:00:49;3;3;
55276;PMS5003;41136;51.478;-2.610;2023-09-19T02:03:15;2;1;
55276;PMS5003;41136;51.478;-2.610;2023-09-19T02:05:40;1;1;
55276;PMS5003;41136;51.478;-2.610;2023-09-19T02:08:05;5;5;
55276;PMS5003;41136;51.478;-2.610;2023-09-19T02:10:31;1;1;
55276;PMS5003;41136;51.478;-2.610;2023-09-19T02:12:57;1;1;
55276;PMS5003;41136;51.478;-2.610;2023-09-19T02:15:22;1;1;
55276;PMS5003;41136;51.478;-2.610;2023-09-19T02:17:48;5;2;
55276;PMS5003;41136;51.478;-2.610;2023-09-19T02:23:20;1;1;
55276;PMS5003;41136;51.478;-2.610;2023-09-19T02:28:10;3;1;
55276;PMS5003;41136;51.478;-2.610;2023-09-19T02:30:35;1;1;
55276;PMS5003;41136;51.478;-2.610;2023-09-19T02:33:00;4;2;
55276;PMS5003;41136;51.478;-2.610;2023-09-19T02:35:26;0;0;
55276;PMS5003;41136;51.478;-2.610;2023-09-19T02:37:51;3;1;
55276;PMS5003;41136;51.478;-2.610;2023-09-19T02:40:16;1;1;
55276;PMS5003;41136;51.478;-2.610;2023-09-19T02:42:42;3;3;
55276;PMS5003;41136;51.478;-2.610;2023-09-19T02:45:07;3;1;
55276;PMS5003;41136;51.478;-2.610;2023-09-19T02:47:32;2;2;
55276;PMS5003;41136;51.478;-2.610;2023-09-19T02:53:35;1;1;
55276;PMS5003;41136;51.478;-2.610;2023-09-19T02:56:00;1;1;
55276;PMS5003;41136;51.478;-2.610;2023-09-19T03:01:58;1;1;
55276;PMS5003;41136;51.478;-2.610;2023-09-19T03:04:24;1;1;
55276;PMS5003;41136;51.478;-2.610;2023-09-19T03:06:49;2;2;
55276;PMS5003;41136;51.478;-2.610;2023-09-19T03:09:14;1;1;
55276;PMS5003;41136;51.478;-2.610;2023-09-19T03:11:39;3;0;
55276;PMS5003;41136;51.478;-2.610;2023-09-19T03:17:44;2;2;
55276;PMS5003;41136;51.478;-2.610;2023-09-19T03:20:09;0;0;
55276;PMS5003;41136;51.478;-2.610;2023-09-19T03:22:34;2;1;
55276;PMS5003;41136;51.478;-2.610;2023-09-19T03:25:00;2;2;
55276;PMS5003;41136;51.478;-2.610;2023-09-19T03:27:25;1;1;
55276;PMS5003;41136;51.478;-2.610;2023-09-19T03:29:50;0;0;
55276;PMS5003;41136;51.478;-2.610;2023-09-19T03:32:16;1;0;
55276;PMS5003;41136;51.478;-2.610;2023-09-19T03:34:41;4;1;
55276;PMS5003;41136;51.478;-2.610;2023-09-19T03:37:06;2;1;
55276;PMS5003;41136;51.478;-2.610;2023-09-19T03:39:31;1;0;
55276;PMS5003;41136;51.478;-2.610;2023-09-19T03:41:57;1;1;
55276;PMS5003;41136;51.478;-2.610;2023-09-19T03:44:22;3;2;
55276;PMS5003;41136;51.478;-2.610;2023-09-19T03:46:47;2;1;
55276;PMS5003;41136;51.478;-2.610;2023-09-19T03:49:13;4;2;
55276;PMS5003;41136;51.478;-2.610;2023-09-19T03:51:38;1;1;
55276;PMS5003;41136;51.478;-2.610;2023-09-19T03:54:03;3;1;
55276;PMS5003;41136;51.478;-2.610;2023-09-19T03:56:28;1;1;
55276;PMS5003;41136;51.478;-2.610;2023-09-19T03:58:54;2;0;
55276;PMS5003;41136;51.478;-2.610;2023-09-19T04:01:19;2;2;
55276;PMS5003;41136;51.478;-2.610;2023-09-19T04:03:44;1;1;
55276;PMS5003;41136;51.478;-2.610;2023-09-19T04:06:10;1;1;
55276;PMS5003;41136;51.478;-2.610;2023-09-19T04:08:35;0;0;
55276;PMS5003;41136;51.478;-2.610;2023-09-19T04:11:01;0;0;
55276;PMS5003;41136;51.478;-2.610;2023-09-19T04:13:26;1;1;
55276;PMS5003;41136;51.478;-2.610;2023-09-19T04:15:51;1;0;
55276;PMS5003;41136;51.478;-2.610;2023-09-19T04:18:17;0;0;
55276;PMS5003;41136;51.478;-2.610;2023-09-19T04:20:47;3;0;
55276;PMS5003;41136;51.478;-2.610;2023-09-19T04:23:07;0;0;
55276;PMS5003;41136;51.478;-2.610;2023-09-19T04:25:38;1;1;
55276;PMS5003;41136;51.478;-2.610;2023-09-19T04:27:58;0;0;
55276;PMS5003;41136;51.478;-2.610;2023-09-19T04:30:23;0;0;
55276;PMS5003;41136;51.478;-2.610;2023-09-19T04:32:49;1;1;
55276;PMS5003;41136;51.478;-2.610;2023-09-19T04:35:14;0;0;
55276;PMS5003;41136;51.478;-2.610;2023-09-19T04:37:44;1;1;
55276;PMS5003;41136;51.478;-2.610;2023-09-19T04:40:05;0;0;
55276;PMS5003;41136;51.478;-2.610;2023-09-19T04:42:30;3;2;
55276;PMS5003;41136;51.478;-2.610;2023-09-19T04:44:55;2;2;
55276;PMS5003;41136;51.478;-2.610;2023-09-19T04:47:20;0;0;
55276;PMS5003;41136;51.478;-2.610;2023-09-19T04:49:46;2;0;
55276;PMS5003;41136;51.478;-2.610;2023-09-19T04:52:11;0;0;
55276;PMS5003;41136;51.478;-2.610;2023-09-19T04:54:36;0;0;
55276;PMS5003;41136;51.478;-2.610;2023-09-19T04:57:01;0;0;
55276;PMS5003;41136;51.478;-2.610;2023-09-19T04:59:27;2;1;
55276;PMS5003;41136;51.478;-2.610;2023-09-19T05:01:52;0;0;
55276;PMS5003;41136;51.478;-2.610;2023-09-19T05:04:17;4;3;
55276;PMS5003;41136;51.478;-2.610;2023-09-19T05:06:43;1;1;
55276;PMS5003;41136;51.478;-2.610;2023-09-19T05:09:08;4;1;
55276;PMS5003;41136;51.478;-2.610;2023-09-19T05:11:33;2;2;
55276;PMS5003;41136;51.478;-2.610;2023-09-19T05:13:58;4;2;
55276;PMS5003;41136;51.478;-2.610;2023-09-19T05:16:24;1;1;
55276;PMS5003;41136;51.478;-2.610;2023-09-19T05:18:49;1;1;
55276;PMS5003;41136;51.478;-2.610;2023-09-19T05:21:14;2;0;
55276;PMS5003;41136;51.478;-2.610;2023-09-19T05:23:40;1;1;
55276;PMS5003;41136;51.478;-2.610;2023-09-19T05:26:05;1;1;
55276;PMS5003;41136;51.478;-2.610;2023-09-19T05:28:30;0;0;
55276;PMS5003;41136;51.478;-2.610;2023-09-19T05:30:55;0;0;
55276;PMS5003;41136;51.478;-2.610;2023-09-19T05:33:21;1;1;
55276;PMS5003;41136;51.478;-2.610;2023-09-19T05:35:47;1;1;
55276;PMS5003;41136;51.478;-2.610;2023-09-19T05:38:11;0;0;
55276;PMS5003;41136;51.478;-2.610;2023-09-19T05:40:37;0;0;
55276;PMS5003;41136;51.478;-2.610;2023-09-19T05:43:02;1;1;
55276;PMS5003;41136;51.478;-2.610;2023-09-19T05:45:27;0;0;
55276;PMS5003;41136;51.478;-2.610;2023-09-19T05:47:53;2;2;
55276;PMS5003;41136;51.478;-2.610;2023-09-19T05:50:18;1;0;
55276;PMS5003;41136;51.478;-2.610;2023-09-19T05:52:43;1;1;
55276;PMS5003;41136;51.478;-2.610;2023-09-19T05:55:08;0;0;
55276;PMS5003;41136;51.478;-2.610;2023-09-19T05:57:34;3;3;
55276;PMS5003;41136;51.478;-2.610;2023-09-19T05:59:59;2;2;
55276;PMS5003;41136;51.478;-2.610;2023-09-19T06:02:24;2;2;
55276;PMS5003;41136;51.478;-2.610;2023-09-19T06:04:50;2;2;
55276;PMS5003;41136;51.478;-2.610;2023-09-19T06:07:15;5;3;
55276;PMS5003;41136;51.478;-2.610;2023-09-19T06:09:41;2;2;
55276;PMS5003;41136;51.478;-2.610;2023-09-19T06:12:06;2;2;
55276;PMS5003;41136;51.478;-2.610;2023-09-19T06:14:31;1;1;
55276;PMS5003;41136;51.478;-2.610;2023-09-19T06:16:57;4;4;
55276;PMS5003;41136;51.478;-2.610;2023-09-19T06:19:22;3;3;
55276;PMS5003;41136;51.478;-2.610;2023-09-19T06:21:47;5;4;
55276;PMS5003;41136;51.478;-2.610;2023-09-19T06:24:12;4;3;
55276;PMS5003;41136;51.478;-2.610;2023-09-19T06:26:38;3;3;
55276;PMS5003;41136;51.478;-2.610;2023-09-19T06:29:03;2;2;
55276;PMS5003;41136;51.478;-2.610;2023-09-19T06:31:28;3;3;
55276;PMS5003;41136;51.478;-2.610;2023-09-19T06:33:54;3;3;
55276;PMS5003;41136;51.478;-2.610;2023-09-19T06:38:15;5;2;
55276;PMS5003;41136;51.478;-2.610;2023-09-19T06:40:41;4;4;
55276;PMS5003;41136;51.478;-2.610;2023-09-19T06:43:06;5;5;
55276;PMS5003;41136;51.478;-2.610;2023-09-19T06:45:31;5;5;
55276;PMS5003;41136;51.478;-2.610;2023-09-19T06:47:57;10;4;
55276;PMS5003;41136;51.478;-2.610;2023-09-19T06:50:22;4;4;
55276;PMS5003;41136;51.478;-2.610;2023-09-19T06:52:47;4;4;
55276;PMS5003;41136;51.478;-2.610;2023-09-19T06:55:13;8;5;
55276;PMS5003;41136;51.478;-2.610;2023-09-19T06:57:38;4;4;
55276;PMS5003;41136;51.478;-2.610;2023-09-19T07:00:03;4;4;
55276;PMS5003;41136;51.478;-2.610;2023-09-19T07:02:28;7;4;
55276;PMS5003;41136;51.478;-2.610;2023-09-19T07:04:54;5;4;
55276;PMS5003;41136;51.478;-2.610;2023-09-19T07:07:19;4;4;
55276;PMS5003;41136;51.478;-2.610;2023-09-19T07:09:45;5;5;
55276;PMS5003;41136;51.478;-2.610;2023-09-19T07:12:10;4;4;
55276;PMS5003;41136;51.478;-2.610;2023-09-19T07:14:35;4;4;
55276;PMS5003;41136;51.478;-2.610;2023-09-19T07:17:01;6;5;
55276;PMS5003;41136;51.478;-2.610;2023-09-19T07:19:26;4;4;
55276;PMS5003;41136;51.478;-2.610;2023-09-19T07:21:52;3;3;
55276;PMS5003;41136;51.478;-2.610;2023-09-19T07:24:17;6;5;
55276;PMS5003;41136;51.478;-2.610;2023-09-19T07:26:42;6;6;
55276;PMS5003;41136;51.478;-2.610;2023-09-19T07:29:07;7;5;
55276;PMS5003;41136;51.478;-2.610;2023-09-19T07:31:33;7;5;
55276;PMS5003;41136;51.478;-2.610;2023-09-19T07:33:58;6;5;
55276;PMS5003;41136;51.478;-2.610;2023-09-19T07:36:24;5;5;
55276;PMS5003;41136;51.478;-2.610;2023-09-19T07:38:49;12;8;
55276;PMS5003;41136;51.478;-2.610;2023-09-19T07:41:14;10;7;
55276;PMS5003;41136;51.478;-2.610;2023-09-19T07:43:39;5;5;
55276;PMS5003;41136;51.478;-2.610;2023-09-19T07:46:05;8;7;
55276;PMS5003;41136;51.478;-2.610;2023-09-19T07:48:30;7;6;
55276;PMS5003;41136;51.478;-2.610;2023-09-19T07:50:56;7;6;
55276;PMS5003;41136;51.478;-2.610;2023-09-19T07:53:21;10;4;
55276;PMS5003;41136;51.478;-2.610;2023-09-19T07:55:46;5;5;
55276;PMS5003;41136;51.478;-2.610;2023-09-19T07:58:11;9;4;
55276;PMS5003;41136;51.478;-2.610;2023-09-19T08:00:37;6;5;
55276;PMS5003;41136;51.478;-2.610;2023-09-19T08:03:02;8;6;
55276;PMS5003;41136;51.478;-2.610;2023-09-19T08:05:27;5;5;
55276;PMS5003;41136;51.478;-2.610;2023-09-19T08:07:53;8;5;
55276;PMS5003;41136;51.478;-2.610;2023-09-19T08:10:18;8;7;
55276;PMS5003;41136;51.478;-2.610;2023-09-19T08:15:06;9;7;
55276;PMS5003;41136;51.478;-2.610;2023-09-19T08:17:33;9;8;
55276;PMS5003;41136;51.478;-2.610;2023-09-19T08:19:57;5;4;
55276;PMS5003;41136;51.478;-2.610;2023-09-19T08:22:22;10;7;
55276;PMS5003;41136;51.478;-2.610;2023-09-19T08:27:18;12;7;
55276;PMS5003;41136;51.478;-2.610;2023-09-19T08:29:44;5;5;
55276;PMS5003;41136;51.478;-2.610;2023-09-19T08:32:09;8;7;
55276;PMS5003;41136;51.478;-2.610;2023-09-19T08:34:34;6;6;
55276;PMS5003;41136;51.478;-2.610;2023-09-19T08:36:59;8;7;
55276;PMS5003;41136;51.478;-2.610;2023-09-19T08:39:25;11;8;
55276;PMS5003;41136;51.478;-2.610;2023-09-19T08:44:16;5;5;
55276;PMS5003;41136;51.478;-2.610;2023-09-19T08:46:42;8;6;
55276;PMS5003;41136;51.478;-2.610;2023-09-19T08:49:08;8;5;
55276;PMS5003;41136;51.478;-2.610;2023-09-19T08:51:33;7;5;
55276;PMS5003;41136;51.478;-2.610;2023-09-19T08:54:00;4;4;
55276;PMS5003;41136;51.478;-2.610;2023-09-19T08:56:23;8;5;
55276;PMS5003;41136;51.478;-2.610;2023-09-19T08:58:50;5;5;
55276;PMS5003;41136;51.478;-2.610;2023-09-19T09:01:15;3;2;
55276;PMS5003;41136;51.478;-2.610;2023-09-19T09:03:39;5;5;
55276;PMS5003;41136;51.478;-2.610;2023-09-19T09:06:04;4;4;
55276;PMS5003;41136;51.478;-2.610;2023-09-19T09:08:30;7;5;
55276;PMS5003;41136;51.478;-2.610;2023-09-19T09:10:55;10;5;
55276;PMS5003;41136;51.478;-2.610;2023-09-19T09:13:20;7;5;
55276;PMS5003;41136;51.478;-2.610;2023-09-19T09:15:45;5;3;
55276;PMS5003;41136;51.478;-2.610;2023-09-19T09:18:11;6;6;
55276;PMS5003;41136;51.478;-2.610;2023-09-19T09:20:37;7;3;
55276;PMS5003;41136;51.478;-2.610;2023-09-19T09:23:02;5;4;
55276;PMS5003;41136;51.478;-2.610;2023-09-19T09:32:43;3;3;
55276;PMS5003;41136;51.478;-2.610;2023-09-19T09:35:09;4;4;
55276;PMS5003;41136;51.478;-2.610;2023-09-19T09:37:34;5;5;
55276;PMS5003;41136;51.478;-2.610;2023-09-19T09:40:00;3;3;
55276;PMS5003;41136;51.478;-2.610;2023-09-19T09:44:52;4;4;
55276;PMS5003;41136;51.478;-2.610;2023-09-19T09:47:15;3;3;
55276;PMS5003;41136;51.478;-2.610;2023-09-19T09:49:40;9;4;
55276;PMS5003;41136;51.478;-2.610;2023-09-19T09:52:06;4;4;
55276;PMS5003;41136;51.478;-2.610;2023-09-19T09:54:31;6;4;
55276;PMS5003;41136;51.478;-2.610;2023-09-19T09:56:57;3;3;
55276;PMS5003;41136;51.478;-2.610;2023-09-19T09:59:21;5;5;
55276;PMS5003;41136;51.478;-2.610;2023-09-19T10:01:47;3;2;
55276;PMS5003;41136;51.478;-2.610;2023-09-19T10:04:12;2;1;
55276;PMS5003;41136;51.478;-2.610;2023-09-19T10:06:40;2;2;
55276;PMS5003;41136;51.478;-2.610;2023-09-19T10:09:04;6;3;
55276;PMS5003;41136;51.478;-2.610;2023-09-19T10:11:28;4;3;
55276;PMS5003;41136;51.478;-2.610;2023-09-19T10:13:53;4;2;
55276;PMS5003;41136;51.478;-2.610;2023-09-19T10:16:18;5;4;
55276;PMS5003;41136;51.478;-2.610;2023-09-19T10:18:43;1;1;
55276;PMS5003;41136;51.478;-2.610;2023-09-19T10:21:09;5;3;
55276;PMS5003;41136;51.478;-2.610;2023-09-19T10:23:34;2;1;
55276;PMS5003;41136;51.478;-2.610;2023-09-19T10:25:59;3;3;
55276;PMS5003;41136;51.478;-2.610;2023-09-19T10:28:25;3;2;
55276;PMS5003;41136;51.478;-2.610;2023-09-19T10:30:50;4;4;
55276;PMS5003;41136;51.478;-2.610;2023-09-19T10:33:16;2;1;
55276;PMS5003;41136;51.478;-2.610;2023-09-19T10:35:42;2;2;
55276;PMS5003;41136;51.478;-2.610;2023-09-19T10:38:06;3;3;
55276;PMS5003;41136;51.478;-2.610;2023-09-19T10:40:32;2;2;
55276;PMS5003;41136;51.478;-2.610;2023-09-19T10:43:00;2;2;
55276;PMS5003;41136;51.478;-2.610;2023-09-19T10:45:21;2;2;
55276;PMS5003;41136;51.478;-2.610;2023-09-19T10:47:47;1;1;
55276;PMS5003;41136;51.478;-2.610;2023-09-19T10:52:38;2;2;
55276;PMS5003;41136;51.478;-2.610;2023-09-19T10:55:03;2;1;
55276;PMS5003;41136;51.478;-2.610;2023-09-19T10:57:28;0;0;
55276;PMS5003;41136;51.478;-2.610;2023-09-19T11:02:18;2;2;
55276;PMS5003;41136;51.478;-2.610;2023-09-19T11:04:43;0;0;
55276;PMS5003;41136;51.478;-2.610;2023-09-19T11:16:21;1;1;
55276;PMS5003;41136;51.478;-2.610;2023-09-19T11:23:36;0;0;
55276;PMS5003;41136;51.478;-2.610;2023-09-19T11:26:02;0;0;
55276;PMS5003;41136;51.478;-2.610;2023-09-19T11:28:28;0;0;
55276;PMS5003;41136;51.478;-2.610;2023-09-19T11:30:52;2;0;
55276;PMS5003;41136;51.478;-2.610;2023-09-19T11:33:18;1;1;
55276;PMS5003;41136;51.478;-2.610;2023-09-19T11:38:08;1;0;
55276;PMS5003;41136;51.478;-2.610;2023-09-19T11:40:33;0;0;
55276;PMS5003;41136;51.478;-2.610;2023-09-19T11:42:58;0;0;
55276;PMS5003;41136;51.478;-2.610;2023-09-19T11:47:49;1;1;
55276;PMS5003;41136;51.478;-2.610;2023-09-19T11:50:16;0;0;
55276;PMS5003;41136;51.478;-2.610;2023-09-19T11:52:39;1;1;
55276;PMS5003;41136;51.478;-2.610;2023-09-19T11:55:05;0;0;
55276;PMS5003;41136;51.478;-2.610;2023-09-19T11:57:30;1;1;
55276;PMS5003;41136;51.478;-2.610;2023-09-19T11:59:55;0;0;
55276;PMS5003;41136;51.478;-2.610;2023-09-19T12:02:30;0;0;
55276;PMS5003;41136;51.478;-2.610;2023-09-19T12:04:46;1;1;
55276;PMS5003;41136;51.478;-2.610;2023-09-19T12:07:11;3;1;
55276;PMS5003;41136;51.478;-2.610;2023-09-19T12:09:38;3;3;
55276;PMS5003;41136;51.478;-2.610;2023-09-19T12:12:01;0;0;
55276;PMS5003;41136;51.478;-2.610;2023-09-19T12:14:27;1;1;
55276;PMS5003;41136;51.478;-2.610;2023-09-19T12:16:53;1;1;
55276;PMS5003;41136;51.478;-2.610;2023-09-19T12:21:55;0;0;
55276;PMS5003;41136;51.478;-2.610;2023-09-19T12:24:18;0;0;
55276;PMS5003;41136;51.478;-2.610;2023-09-19T12:26:44;1;1;
55276;PMS5003;41136;51.478;-2.610;2023-09-19T12:31:33;0;0;
55276;PMS5003;41136;51.478;-2.610;2023-09-19T12:33:58;0;0;
55276;PMS5003;41136;51.478;-2.610;2023-09-19T12:36:24;2;2;
55276;PMS5003;41136;51.478;-2.610;2023-09-19T12:38:49;2;2;
55276;PMS5003;41136;51.478;-2.610;2023-09-19T12:41:14;3;1;
55276;PMS5003;41136;51.478;-2.610;2023-09-19T12:43:39;3;1;
55276;PMS5003;41136;51.478;-2.610;2023-09-19T12:46:05;1;1;
55276;PMS5003;41136;51.478;-2.610;2023-09-19T12:48:30;1;1;
55276;PMS5003;41136;51.478;-2.610;2023-09-19T12:50:59;2;2;
55276;PMS5003;41136;51.478;-2.610;2023-09-19T12:53:24;0;0;
55276;PMS5003;41136;51.478;-2.610;2023-09-19T12:55:46;1;1;
55276;PMS5003;41136;51.478;-2.610;2023-09-19T12:58:12;1;1;
55276;PMS5003;41136;51.478;-2.610;2023-09-19T13:00:37;2;2;
55276;PMS5003;41136;51.478;-2.610;2023-09-19T13:07:52;0;0;
55276;PMS5003;41136;51.478;-2.610;2023-09-19T13:10:17;0;0;
55276;PMS5003;41136;51.478;-2.610;2023-09-19T13:12:43;1;1;
55276;PMS5003;41136;51.478;-2.610;2023-09-19T13:15:08;2;0;
55276;PMS5003;41136;51.478;-2.610;2023-09-19T13:21:30;0;0;
55276;PMS5003;41136;51.478;-2.610;2023-09-19T13:23:54;2;1;
55276;PMS5003;41136;51.478;-2.610;2023-09-19T13:26:19;3;1;
55276;PMS5003;41136;51.478;-2.610;2023-09-19T13:28:44;3;3;
55276;PMS5003;41136;51.478;-2.610;2023-09-19T13:31:09;3;3;
55276;PMS5003;41136;51.478;-2.610;2023-09-19T13:33:35;3;3;
55276;PMS5003;41136;51.478;-2.610;2023-09-19T13:36:00;4;3;
55276;PMS5003;41136;51.478;-2.610;2023-09-19T13:38:30;7;4;
55276;PMS5003;41136;51.478;-2.610;2023-09-19T13:40:50;4;3;
55276;PMS5003;41136;51.478;-2.610;2023-09-19T13:43:16;4;4;
55276;PMS5003;41136;51.478;-2.610;2023-09-19T13:45:41;4;3;
55276;PMS5003;41136;51.478;-2.610;2023-09-19T13:48:06;4;2;
55276;PMS5003;41136;51.478;-2.610;2023-09-19T13:50:31;6;4;
55276;PMS5003;41136;51.478;-2.610;2023-09-19T13:52:56;7;5;
55276;PMS5003;41136;51.478;-2.610;2023-09-19T13:55:22;5;4;
55276;PMS5003;41136;51.478;-2.610;2023-09-19T13:57:47;4;3;
55276;PMS5003;41136;51.478;-2.610;2023-09-19T14:00:13;5;5;
55276;PMS5003;41136;51.478;-2.610;2023-09-19T14:02:38;8;3;
55276;PMS5003;41136;51.478;-2.610;2023-09-19T14:05:03;6;6;
55276;PMS5003;41136;51.478;-2.610;2023-09-19T14:07:28;4;4;
55276;PMS5003;41136;51.478;-2.610;2023-09-19T14:09:54;3;3;
55276;PMS5003;41136;51.478;-2.610;2023-09-19T14:12:19;2;2;
55276;PMS5003;41136;51.478;-2.610;2023-09-19T14:14:44;2;2;
55276;PMS5003;41136;51.478;-2.610;2023-09-19T14:17:09;3;2;
55276;PMS5003;41136;51.478;-2.610;2023-09-19T14:19:35;4;4;
55276;PMS5003;41136;51.478;-2.610;2023-09-19T14:22:00;4;2;
55276;PMS5003;41136;51.478;-2.610;2023-09-19T14:24:25;3;3;
55276;PMS5003;41136;51.478;-2.610;2023-09-19T14:31:17;1;1;
55276;PMS5003;41136;51.478;-2.610;2023-09-19T14:33:42;2;2;
55276;PMS5003;41136;51.478;-2.610;2023-09-19T14:36:08;2;2;
55276;PMS5003;41136;51.478;-2.610;2023-09-19T14:38:33;2;2;
55276;PMS5003;41136;51.478;-2.610;2023-09-19T14:40:59;2;2;
55276;PMS5003;41136;51.478;-2.610;2023-09-19T14:43:24;0;0;
55276;PMS5003;41136;51.478;-2.610;2023-09-19T14:45:49;4;4;
55276;PMS5003;41136;51.478;-2.610;2023-09-19T14:48:15;0;0;
55276;PMS5003;41136;51.478;-2.610;2023-09-19T14:50:39;0;0;
55276;PMS5003;41136;51.478;-2.610;2023-09-19T14:53:05;2;1;
55276;PMS5003;41136;51.478;-2.610;2023-09-19T14:55:30;1;0;
55276;PMS5003;41136;51.478;-2.610;2023-09-19T14:57:55;0;0;
55276;PMS5003;41136;51.478;-2.610;2023-09-19T15:00:20;1;1;
55276;PMS5003;41136;51.478;-2.610;2023-09-19T15:02:45;1;1;
55276;PMS5003;41136;51.478;-2.610;2023-09-19T15:05:11;0;0;
55276;PMS5003;41136;51.478;-2.610;2023-09-19T15:07:36;3;1;
55276;PMS5003;41136;51.478;-2.610;2023-09-19T15:10:01;1;1;
55276;PMS5003;41136;51.478;-2.610;2023-09-19T15:15:18;0;0;
55276;PMS5003;41136;51.478;-2.610;2023-09-19T15:17:44;1;0;
55276;PMS5003;41136;51.478;-2.610;2023-09-19T15:20:09;2;2;
55276;PMS5003;41136;51.478;-2.610;2023-09-19T15:22:34;3;1;
55276;PMS5003;41136;51.478;-2.610;2023-09-19T15:24:59;4;4;
55276;PMS5003;41136;51.478;-2.610;2023-09-19T15:27:24;1;1;
55276;PMS5003;41136;51.478;-2.610;2023-09-19T15:29:50;2;2;
55276;PMS5003;41136;51.478;-2.610;2023-09-19T15:32:15;3;3;
55276;PMS5003;41136;51.478;-2.610;2023-09-19T15:34:40;4;2;
55276;PMS5003;41136;51.478;-2.610;2023-09-19T15:37:05;3;2;
55276;PMS5003;41136;51.478;-2.610;2023-09-19T15:39:31;1;1;
55276;PMS5003;41136;51.478;-2.610;2023-09-19T15:41:56;3;2;
55276;PMS5003;41136;51.478;-2.610;2023-09-19T15:44:22;3;3;
55276;PMS5003;41136;51.478;-2.610;2023-09-19T15:46:47;4;2;
55276;PMS5003;41136;51.478;-2.610;2023-09-19T15:49:12;6;3;
55276;PMS5003;41136;51.478;-2.610;2023-09-19T15:51:38;2;1;
55276;PMS5003;41136;51.478;-2.610;2023-09-19T15:54:06;3;3;
55276;PMS5003;41136;51.478;-2.610;2023-09-19T15:56:28;2;2;
55276;PMS5003;41136;51.478;-2.610;2023-09-19T15:58:54;2;2;
55276;PMS5003;41136;51.478;-2.610;2023-09-19T16:01:19;3;3;
55276;PMS5003;41136;51.478;-2.610;2023-09-19T16:03:45;2;2;
55276;PMS5003;41136;51.478;-2.610;2023-09-19T16:06:09;2;2;
55276;PMS5003;41136;51.478;-2.610;2023-09-19T16:08:34;1;1;
55276;PMS5003;41136;51.478;-2.610;2023-09-19T16:10:59;2;2;
55276;PMS5003;41136;51.478;-2.610;2023-09-19T16:13:25;1;1;
55276;PMS5003;41136;51.478;-2.610;2023-09-19T16:15:50;1;0;
55276;PMS5003;41136;51.478;-2.610;2023-09-19T16:18:15;2;2;
55276;PMS5003;41136;51.478;-2.610;2023-09-19T16:20:40;0;0;
55276;PMS5003;41136;51.478;-2.610;2023-09-19T16:23:06;1;1;
55276;PMS5003;41136;51.478;-2.610;2023-09-19T16:25:31;3;2;
55276;PMS5003;41136;51.478;-2.610;2023-09-19T16:27:56;1;1;
55276;PMS5003;41136;51.478;-2.610;2023-09-19T16:30:21;2;2;
55276;PMS5003;41136;51.478;-2.610;2023-09-19T16:32:47;2;1;
55276;PMS5003;41136;51.478;-2.610;2023-09-19T16:35:12;3;1;
55276;PMS5003;41136;51.478;-2.610;2023-09-19T16:41:56;0;0;
55276;PMS5003;41136;51.478;-2.610;2023-09-19T16:54:55;2;1;
55276;PMS5003;41136;51.478;-2.610;2023-09-19T16:57:20;2;2;
55276;PMS5003;41136;51.478;-2.610;2023-09-19T17:01:59;0;0;
55276;PMS5003;41136;51.478;-2.610;2023-09-19T17:04:24;3;1;
55276;PMS5003;41136;51.478;-2.610;2023-09-19T17:06:49;3;3;
55276;PMS5003;41136;51.478;-2.610;2023-09-19T17:09:15;2;2;
55276;PMS5003;41136;51.478;-2.610;2023-09-19T17:18:27;2;2;
55276;PMS5003;41136;51.478;-2.610;2023-09-19T17:20:52;3;3;
55276;PMS5003;41136;51.478;-2.610;2023-09-19T17:23:17;4;2;
55276;PMS5003;41136;51.478;-2.610;2023-09-19T17:25:42;4;4;
55276;PMS5003;41136;51.478;-2.610;2023-09-19T17:28:08;2;2;
55276;PMS5003;41136;51.478;-2.610;2023-09-19T17:30:33;3;3;
55276;PMS5003;41136;51.478;-2.610;2023-09-19T17:32:58;3;3;
55276;PMS5003;41136;51.478;-2.610;2023-09-19T17:35:23;5;2;
55276;PMS5003;41136;51.478;-2.610;2023-09-19T17:37:48;5;2;
55276;PMS5003;41136;51.478;-2.610;2023-09-19T17:40:14;2;2;
55276;PMS5003;41136;51.478;-2.610;2023-09-19T17:42:39;4;3;
55276;PMS5003;41136;51.478;-2.610;2023-09-19T17:45:05;3;3;
55276;PMS5003;41136;51.478;-2.610;2023-09-19T17:47:29;2;2;
55276;PMS5003;41136;51.478;-2.610;2023-09-19T17:56:04;2;1;
55276;PMS5003;41136;51.478;-2.610;2023-09-19T17:58:29;0;0;
55276;PMS5003;41136;51.478;-2.610;2023-09-19T18:00:54;2;2;
55276;PMS5003;41136;51.478;-2.610;2023-09-19T18:03:19;1;1;
55276;PMS5003;41136;51.478;-2.610;2023-09-19T18:09:27;3;0;
55276;PMS5003;41136;51.478;-2.610;2023-09-19T18:11:52;1;0;
55276;PMS5003;41136;51.478;-2.610;2023-09-19T18:14:18;1;1;
55276;PMS5003;41136;51.478;-2.610;2023-09-19T18:16:43;1;1;
55276;PMS5003;41136;51.478;-2.610;2023-09-19T18:19:08;0;0;
55276;PMS5003;41136;51.478;-2.610;2023-09-19T18:21:33;3;0;
55276;PMS5003;41136;51.478;-2.610;2023-09-19T18:23:59;0;0;
55276;PMS5003;41136;51.478;-2.610;2023-09-19T18:30:32;0;0;
55276;PMS5003;41136;51.478;-2.610;2023-09-19T18:32:59;0;0;
55276;PMS5003;41136;51.478;-2.610;2023-09-19T18:35:23;2;0;
55276;PMS5003;41136;51.478;-2.610;2023-09-19T18:37:48;0;0;
55276;PMS5003;41136;51.478;-2.610;2023-09-19T18:40:13;2;2;